sensor_id;sensor_type;location;lat;lon;timestamp;P1;durP1;ratioP1;P2;durP2;ratioP2
81310;SDS011;70779;52.506;5.492;2024-01-25T00:02:25;12.48;;;1.88;;
81310;SDS011;70779;52.506;5.492;2024-01-25T00:04:51;25.90;;;2.13;;
81310;SDS011;70779;52.506;5.492;2024-01-25T00:07:17;20.10;;;2.45;;
81310;SDS011;70779;52.506;5.492;2024-01-25T00:09:43;18.55;;;2.50;;
81310;SDS011;70779;52.506;5.492;2024-01-25T00:12:09;18.98;;;2.70;;
81310;SDS011;70779;52.506;5.492;2024-01-25T00:14:35;21.05;;;2.33;;
81310;SDS011;70779;52.506;5.492;2024-01-25T00:17:01;16.95;;;1.95;;
81310;SDS011;70779;52.506;5.492;2024-01-25T00:19:27;28.55;;;3.85;;
81310;SDS011;70779;52.506;5.492;2024-01-25T00:21:53;23.33;;;3.10;;
81310;SDS011;70779;52.506;5.492;2024-01-25T00:24:20;17.58;;;2.05;;
81310;SDS011;70779;52.506;5.492;2024-01-25T00:26:46;18.85;;;2.20;;
81310;SDS011;70779;52.506;5.492;2024-01-25T00:29:12;30.10;;;3.17;;
81310;SDS011;70779;52.506;5.492;2024-01-25T00:31:38;18.60;;;2.75;;
81310;SDS011;70779;52.506;5.492;2024-01-25T00:34:04;23.33;;;3.65;;
81310;SDS011;70779;52.506;5.492;2024-01-25T00:36:30;22.85;;;2.88;;
81310;SDS011;70779;52.506;5.492;2024-01-25T00:38:57;17.77;;;2.85;;
81310;SDS011;70779;52.506;5.492;2024-01-25T00:41:23;27.10;;;2.70;;
81310;SDS011;70779;52.506;5.492;2024-01-25T00:43:49;19.95;;;2.05;;
81310;SDS011;70779;52.506;5.492;2024-01-25T00:46:16;27.45;;;2.55;;
81310;SDS011;70779;52.506;5.492;2024-01-25T00:48:42;23.75;;;2.13;;
81310;SDS011;70779;52.506;5.492;2024-01-25T00:51:08;21.63;;;2.33;;
81310;SDS011;70779;52.506;5.492;2024-01-25T00:53:40;21.58;;;2.25;;
81310;SDS011;70779;52.506;5.492;2024-01-25T00:56:06;15.25;;;1.55;;
81310;SDS011;70779;52.506;5.492;2024-01-25T00:58:33;18.65;;;2.63;;
81310;SDS011;70779;52.506;5.492;2024-01-25T01:00:59;18.63;;;2.42;;
81310;SDS011;70779;52.506;5.492;2024-01-25T01:03:26;13.23;;;2.08;;
81310;SDS011;70779;52.506;5.492;2024-01-25T01:05:52;16.35;;;2.50;;
81310;SDS011;70779;52.506;5.492;2024-01-25T01:08:18;26.92;;;2.80;;
81310;SDS011;70779;52.506;5.492;2024-01-25T01:10:44;25.70;;;2.05;;
81310;SDS011;70779;52.506;5.492;2024-01-25T01:13:11;30.75;;;2.50;;
81310;SDS011;70779;52.506;5.492;2024-01-25T01:15:37;22.77;;;2.55;;
81310;SDS011;70779;52.506;5.492;2024-01-25T01:18:03;22.38;;;3.03;;
81310;SDS011;70779;52.506;5.492;2024-01-25T01:20:30;20.45;;;2.55;;
81310;SDS011;70779;52.506;5.492;2024-01-25T01:22:57;27.60;;;2.95;;
81310;SDS011;70779;52.506;5.492;2024-01-25T01:25:23;20.00;;;3.85;;
81310;SDS011;70779;52.506;5.492;2024-01-25T01:27:49;17.50;;;2.45;;
81310;SDS011;70779;52.506;5.492;2024-01-25T01:30:15;22.17;;;2.90;;
81310;SDS011;70779;52.506;5.492;2024-01-25T01:32:41;22.30;;;2.75;;
81310;SDS011;70779;52.506;5.492;2024-01-25T01:35:07;13.68;;;1.33;;
81310;SDS011;70779;52.506;5.492;2024-01-25T01:37:33;22.15;;;2.70;;
81310;SDS011;70779;52.506;5.492;2024-01-25T01:39:59;15.40;;;2.35;;
81310;SDS011;70779;52.506;5.492;2024-01-25T01:42:27;24.17;;;3.53;;
81310;SDS011;70779;52.506;5.492;2024-01-25T01:44:53;14.63;;;2.63;;
81310;SDS011;70779;52.506;5.492;2024-01-25T01:47:19;20.95;;;3.03;;
81310;SDS011;70779;52.506;5.492;2024-01-25T01:49:45;23.42;;;2.50;;
81310;SDS011;70779;52.506;5.492;2024-01-25T01:52:12;26.38;;;3.40;;
81310;SDS011;70779;52.506;5.492;2024-01-25T01:54:39;19.83;;;2.30;;
81310;SDS011;70779;52.506;5.492;2024-01-25T01:57:06;24.10;;;2.95;;
81310;SDS011;70779;52.506;5.492;2024-01-25T01:59:33;25.85;;;3.25;;
81310;SDS011;70779;52.506;5.492;2024-01-25T02:01:59;14.00;;;2.67;;
81310;SDS011;70779;52.506;5.492;2024-01-25T02:04:25;20.83;;;2.97;;
81310;SDS011;70779;52.506;5.492;2024-01-25T02:06:51;16.48;;;2.70;;
81310;SDS011;70779;52.506;5.492;2024-01-25T02:09:17;17.77;;;2.13;;
81310;SDS011;70779;52.506;5.492;2024-01-25T02:11:44;24.17;;;2.67;;
81310;SDS011;70779;52.506;5.492;2024-01-25T02:14:10;21.88;;;3.35;;
81310;SDS011;70779;52.506;5.492;2024-01-25T02:16:37;16.02;;;2.78;;
81310;SDS011;70779;52.506;5.492;2024-01-25T02:19:03;18.88;;;2.35;;
81310;SDS011;70779;52.506;5.492;2024-01-25T02:21:30;21.85;;;2.75;;
81310;SDS011;70779;52.506;5.492;2024-01-25T02:23:56;26.67;;;3.35;;
81310;SDS011;70779;52.506;5.492;2024-01-25T02:26:22;21.77;;;2.60;;
81310;SDS011;70779;52.506;5.492;2024-01-25T02:28:48;22.80;;;2.55;;
81310;SDS011;70779;52.506;5.492;2024-01-25T02:31:14;20.75;;;2.83;;
81310;SDS011;70779;52.506;5.492;2024-01-25T02:33:40;26.55;;;2.65;;
81310;SDS011;70779;52.506;5.492;2024-01-25T02:36:06;19.33;;;2.63;;
81310;SDS011;70779;52.506;5.492;2024-01-25T02:38:32;21.77;;;3.05;;
81310;SDS011;70779;52.506;5.492;2024-01-25T02:40:58;20.85;;;3.42;;
81310;SDS011;70779;52.506;5.492;2024-01-25T02:43:24;29.83;;;2.83;;
81310;SDS011;70779;52.506;5.492;2024-01-25T02:45:50;16.08;;;2.10;;
81310;SDS011;70779;52.506;5.492;2024-01-25T02:48:16;24.02;;;2.70;;
81310;SDS011;70779;52.506;5.492;2024-01-25T02:50:43;17.15;;;2.45;;
81310;SDS011;70779;52.506;5.492;2024-01-25T02:53:09;22.95;;;2.55;;
81310;SDS011;70779;52.506;5.492;2024-01-25T02:55:35;23.88;;;2.83;;
81310;SDS011;70779;52.506;5.492;2024-01-25T02:58:01;30.67;;;2.97;;
81310;SDS011;70779;52.506;5.492;2024-01-25T03:00:27;22.88;;;2.47;;
81310;SDS011;70779;52.506;5.492;2024-01-25T03:02:53;36.67;;;4.65;;
81310;SDS011;70779;52.506;5.492;2024-01-25T03:05:19;23.17;;;4.13;;
81310;SDS011;70779;52.506;5.492;2024-01-25T03:07:45;20.77;;;3.03;;
81310;SDS011;70779;52.506;5.492;2024-01-25T03:10:11;21.13;;;2.72;;
81310;SDS011;70779;52.506;5.492;2024-01-25T03:12:37;24.73;;;3.30;;
81310;SDS011;70779;52.506;5.492;2024-01-25T03:15:04;18.88;;;2.10;;
81310;SDS011;70779;52.506;5.492;2024-01-25T03:17:30;27.30;;;3.20;;
81310;SDS011;70779;52.506;5.492;2024-01-25T03:19:56;23.25;;;2.53;;
81310;SDS011;70779;52.506;5.492;2024-01-25T03:22:22;21.42;;;2.92;;
81310;SDS011;70779;52.506;5.492;2024-01-25T03:24:48;26.95;;;2.38;;
81310;SDS011;70779;52.506;5.492;2024-01-25T03:27:14;23.40;;;2.47;;
81310;SDS011;70779;52.506;5.492;2024-01-25T03:29:41;21.60;;;2.50;;
81310;SDS011;70779;52.506;5.492;2024-01-25T03:32:10;19.85;;;2.13;;
81310;SDS011;70779;52.506;5.492;2024-01-25T03:34:36;20.33;;;2.33;;
81310;SDS011;70779;52.506;5.492;2024-01-25T03:37:02;28.45;;;3.28;;
81310;SDS011;70779;52.506;5.492;2024-01-25T03:39:28;21.10;;;2.83;;
81310;SDS011;70779;52.506;5.492;2024-01-25T03:41:55;20.45;;;2.58;;
81310;SDS011;70779;52.506;5.492;2024-01-25T03:44:21;25.08;;;2.60;;
81310;SDS011;70779;52.506;5.492;2024-01-25T03:46:47;27.83;;;3.10;;
81310;SDS011;70779;52.506;5.492;2024-01-25T03:49:13;23.13;;;2.50;;
81310;SDS011;70779;52.506;5.492;2024-01-25T03:51:39;31.83;;;2.90;;
81310;SDS011;70779;52.506;5.492;2024-01-25T03:54:05;26.13;;;3.25;;
81310;SDS011;70779;52.506;5.492;2024-01-25T03:56:31;15.35;;;2.17;;
81310;SDS011;70779;52.506;5.492;2024-01-25T03:58:57;25.02;;;3.53;;
81310;SDS011;70779;52.506;5.492;2024-01-25T04:01:23;22.23;;;2.85;;
81310;SDS011;70779;52.506;5.492;2024-01-25T04:03:49;33.20;;;3.20;;
81310;SDS011;70779;52.506;5.492;2024-01-25T04:06:16;24.90;;;3.60;;
81310;SDS011;70779;52.506;5.492;2024-01-25T04:08:42;22.63;;;2.88;;
81310;SDS011;70779;52.506;5.492;2024-01-25T04:11:08;21.15;;;2.28;;
81310;SDS011;70779;52.506;5.492;2024-01-25T04:13:35;32.17;;;2.90;;
81310;SDS011;70779;52.506;5.492;2024-01-25T04:16:01;21.33;;;2.72;;
81310;SDS011;70779;52.506;5.492;2024-01-25T04:18:27;21.48;;;2.45;;
81310;SDS011;70779;52.506;5.492;2024-01-25T04:20:53;22.73;;;3.33;;
81310;SDS011;70779;52.506;5.492;2024-01-25T04:23:19;26.13;;;2.92;;
81310;SDS011;70779;52.506;5.492;2024-01-25T04:25:45;22.48;;;2.45;;
81310;SDS011;70779;52.506;5.492;2024-01-25T04:28:12;25.67;;;3.15;;
81310;SDS011;70779;52.506;5.492;2024-01-25T04:30:38;18.67;;;3.22;;
81310;SDS011;70779;52.506;5.492;2024-01-25T04:33:04;25.85;;;3.03;;
81310;SDS011;70779;52.506;5.492;2024-01-25T04:35:30;22.27;;;3.25;;
81310;SDS011;70779;52.506;5.492;2024-01-25T04:37:57;26.30;;;3.03;;
81310;SDS011;70779;52.506;5.492;2024-01-25T04:40:23;21.02;;;2.38;;
81310;SDS011;70779;52.506;5.492;2024-01-25T04:42:49;25.83;;;2.42;;
81310;SDS011;70779;52.506;5.492;2024-01-25T04:45:15;38.70;;;3.70;;
81310;SDS011;70779;52.506;5.492;2024-01-25T04:47:41;21.55;;;2.80;;
81310;SDS011;70779;52.506;5.492;2024-01-25T04:50:07;27.00;;;2.55;;
81310;SDS011;70779;52.506;5.492;2024-01-25T04:52:34;20.52;;;2.20;;
81310;SDS011;70779;52.506;5.492;2024-01-25T04:55:00;35.65;;;3.30;;
81310;SDS011;70779;52.506;5.492;2024-01-25T04:57:26;21.88;;;2.42;;
81310;SDS011;70779;52.506;5.492;2024-01-25T04:59:52;22.77;;;2.80;;
81310;SDS011;70779;52.506;5.492;2024-01-25T05:02:18;24.50;;;3.15;;
81310;SDS011;70779;52.506;5.492;2024-01-25T05:04:44;22.65;;;2.42;;
81310;SDS011;70779;52.506;5.492;2024-01-25T05:07:10;25.52;;;2.72;;
81310;SDS011;70779;52.506;5.492;2024-01-25T05:09:36;23.08;;;3.20;;
81310;SDS011;70779;52.506;5.492;2024-01-25T05:12:02;17.52;;;2.85;;
81310;SDS011;70779;52.506;5.492;2024-01-25T05:14:29;25.48;;;2.45;;
81310;SDS011;70779;52.506;5.492;2024-01-25T05:16:55;33.38;;;4.32;;
81310;SDS011;70779;52.506;5.492;2024-01-25T05:19:21;22.25;;;2.72;;
81310;SDS011;70779;52.506;5.492;2024-01-25T05:21:47;26.80;;;3.22;;
81310;SDS011;70779;52.506;5.492;2024-01-25T05:24:13;25.67;;;3.15;;
81310;SDS011;70779;52.506;5.492;2024-01-25T05:26:39;22.95;;;2.47;;
81310;SDS011;70779;52.506;5.492;2024-01-25T05:29:05;28.23;;;2.42;;
81310;SDS011;70779;52.506;5.492;2024-01-25T05:31:31;27.42;;;4.10;;
81310;SDS011;70779;52.506;5.492;2024-01-25T05:33:57;30.67;;;4.00;;
81310;SDS011;70779;52.506;5.492;2024-01-25T05:36:23;24.67;;;2.65;;
81310;SDS011;70779;52.506;5.492;2024-01-25T05:38:49;28.38;;;3.20;;
81310;SDS011;70779;52.506;5.492;2024-01-25T05:41:15;33.22;;;3.67;;
81310;SDS011;70779;52.506;5.492;2024-01-25T05:43:42;28.60;;;3.17;;
81310;SDS011;70779;52.506;5.492;2024-01-25T05:46:08;21.98;;;2.33;;
81310;SDS011;70779;52.506;5.492;2024-01-25T05:48:35;29.80;;;3.80;;
81310;SDS011;70779;52.506;5.492;2024-01-25T05:51:01;30.10;;;3.33;;
81310;SDS011;70779;52.506;5.492;2024-01-25T05:53:27;32.15;;;6.03;;
81310;SDS011;70779;52.506;5.492;2024-01-25T05:55:53;36.63;;;8.45;;
81310;SDS011;70779;52.506;5.492;2024-01-25T05:58:19;37.53;;;7.22;;
81310;SDS011;70779;52.506;5.492;2024-01-25T06:00:45;38.63;;;7.13;;
81310;SDS011;70779;52.506;5.492;2024-01-25T06:03:11;25.15;;;5.38;;
81310;SDS011;70779;52.506;5.492;2024-01-25T06:05:37;19.15;;;5.03;;
81310;SDS011;70779;52.506;5.492;2024-01-25T06:08:04;26.52;;;4.28;;
81310;SDS011;70779;52.506;5.492;2024-01-25T06:10:30;23.77;;;4.22;;
81310;SDS011;70779;52.506;5.492;2024-01-25T06:12:56;22.63;;;4.13;;
81310;SDS011;70779;52.506;5.492;2024-01-25T06:15:22;24.35;;;4.32;;
81310;SDS011;70779;52.506;5.492;2024-01-25T06:17:48;23.98;;;3.58;;
81310;SDS011;70779;52.506;5.492;2024-01-25T06:20:14;25.73;;;3.92;;
81310;SDS011;70779;52.506;5.492;2024-01-25T06:22:40;29.10;;;3.40;;
81310;SDS011;70779;52.506;5.492;2024-01-25T06:25:06;34.03;;;3.30;;
81310;SDS011;70779;52.506;5.492;2024-01-25T06:27:33;23.15;;;3.53;;
81310;SDS011;70779;52.506;5.492;2024-01-25T06:29:59;30.40;;;3.22;;
81310;SDS011;70779;52.506;5.492;2024-01-25T06:32:25;30.58;;;3.75;;
81310;SDS011;70779;52.506;5.492;2024-01-25T06:34:51;20.52;;;2.97;;
81310;SDS011;70779;52.506;5.492;2024-01-25T06:37:18;29.50;;;3.72;;
81310;SDS011;70779;52.506;5.492;2024-01-25T06:39:45;29.13;;;3.67;;
81310;SDS011;70779;52.506;5.492;2024-01-25T06:42:11;26.10;;;2.80;;
81310;SDS011;70779;52.506;5.492;2024-01-25T06:44:37;29.92;;;3.88;;
81310;SDS011;70779;52.506;5.492;2024-01-25T06:47:03;32.30;;;4.35;;
81310;SDS011;70779;52.506;5.492;2024-01-25T06:49:29;34.63;;;4.78;;
81310;SDS011;70779;52.506;5.492;2024-01-25T06:51:56;33.15;;;4.10;;
81310;SDS011;70779;52.506;5.492;2024-01-25T06:54:22;17.13;;;3.65;;
81310;SDS011;70779;52.506;5.492;2024-01-25T06:56:48;29.25;;;3.83;;
81310;SDS011;70779;52.506;5.492;2024-01-25T06:59:17;18.40;;;2.58;;
81310;SDS011;70779;52.506;5.492;2024-01-25T07:01:43;27.08;;;3.55;;
81310;SDS011;70779;52.506;5.492;2024-01-25T07:04:09;28.90;;;3.67;;
81310;SDS011;70779;52.506;5.492;2024-01-25T07:06:35;19.38;;;2.97;;
81310;SDS011;70779;52.506;5.492;2024-01-25T07:09:01;29.48;;;5.35;;
81310;SDS011;70779;52.506;5.492;2024-01-25T07:11:28;27.42;;;3.25;;
81310;SDS011;70779;52.506;5.492;2024-01-25T07:13:54;25.00;;;4.72;;
81310;SDS011;70779;52.506;5.492;2024-01-25T07:16:20;27.33;;;3.30;;
81310;SDS011;70779;52.506;5.492;2024-01-25T07:18:47;33.95;;;3.58;;
81310;SDS011;70779;52.506;5.492;2024-01-25T07:21:13;27.70;;;4.18;;
81310;SDS011;70779;52.506;5.492;2024-01-25T07:23:39;32.88;;;4.30;;
81310;SDS011;70779;52.506;5.492;2024-01-25T07:26:05;27.25;;;4.15;;
81310;SDS011;70779;52.506;5.492;2024-01-25T07:28:31;22.00;;;3.38;;
81310;SDS011;70779;52.506;5.492;2024-01-25T07:30:57;30.42;;;3.63;;
81310;SDS011;70779;52.506;5.492;2024-01-25T07:33:23;22.30;;;3.75;;
81310;SDS011;70779;52.506;5.492;2024-01-25T07:35:50;23.85;;;4.05;;
81310;SDS011;70779;52.506;5.492;2024-01-25T07:38:16;27.83;;;3.65;;
81310;SDS011;70779;52.506;5.492;2024-01-25T07:40:42;24.63;;;3.22;;
81310;SDS011;70779;52.506;5.492;2024-01-25T07:43:08;27.27;;;3.53;;
81310;SDS011;70779;52.506;5.492;2024-01-25T07:45:34;28.23;;;3.50;;
81310;SDS011;70779;52.506;5.492;2024-01-25T07:48:01;36.10;;;4.22;;
81310;SDS011;70779;52.506;5.492;2024-01-25T07:50:27;29.27;;;4.00;;
81310;SDS011;70779;52.506;5.492;2024-01-25T07:52:54;21.13;;;2.90;;
81310;SDS011;70779;52.506;5.492;2024-01-25T07:55:20;26.85;;;3.33;;
81310;SDS011;70779;52.506;5.492;2024-01-25T07:57:46;29.10;;;3.88;;
81310;SDS011;70779;52.506;5.492;2024-01-25T08:00:12;27.27;;;3.25;;
81310;SDS011;70779;52.506;5.492;2024-01-25T08:02:39;25.67;;;2.80;;
81310;SDS011;70779;52.506;5.492;2024-01-25T08:05:07;26.95;;;3.30;;
81310;SDS011;70779;52.506;5.492;2024-01-25T08:07:33;36.53;;;3.90;;
81310;SDS011;70779;52.506;5.492;2024-01-25T08:09:59;31.05;;;2.95;;
81310;SDS011;70779;52.506;5.492;2024-01-25T08:12:25;23.77;;;3.05;;
81310;SDS011;70779;52.506;5.492;2024-01-25T08:14:51;34.15;;;3.85;;
81310;SDS011;70779;52.506;5.492;2024-01-25T08:17:18;18.40;;;2.65;;
81310;SDS011;70779;52.506;5.492;2024-01-25T08:19:44;28.00;;;3.78;;
81310;SDS011;70779;52.506;5.492;2024-01-25T08:22:11;20.65;;;4.18;;
81310;SDS011;70779;52.506;5.492;2024-01-25T08:24:38;22.90;;;3.67;;
81310;SDS011;70779;52.506;5.492;2024-01-25T08:27:05;24.20;;;4.47;;
81310;SDS011;70779;52.506;5.492;2024-01-25T08:29:33;24.95;;;4.85;;
81310;SDS011;70779;52.506;5.492;2024-01-25T08:31:59;27.40;;;4.82;;
81310;SDS011;70779;52.506;5.492;2024-01-25T08:34:25;28.75;;;3.47;;
81310;SDS011;70779;52.506;5.492;2024-01-25T08:36:51;22.63;;;3.15;;
81310;SDS011;70779;52.506;5.492;2024-01-25T08:39:17;29.15;;;3.13;;
81310;SDS011;70779;52.506;5.492;2024-01-25T08:41:43;22.42;;;3.20;;
81310;SDS011;70779;52.506;5.492;2024-01-25T08:44:11;21.92;;;4.00;;
81310;SDS011;70779;52.506;5.492;2024-01-25T08:46:37;29.83;;;3.60;;
81310;SDS011;70779;52.506;5.492;2024-01-25T08:49:03;20.25;;;2.80;;
81310;SDS011;70779;52.506;5.492;2024-01-25T08:51:34;32.10;;;3.53;;
81310;SDS011;70779;52.506;5.492;2024-01-25T08:54:00;23.55;;;3.97;;
81310;SDS011;70779;52.506;5.492;2024-01-25T08:56:26;20.83;;;4.15;;
81310;SDS011;70779;52.506;5.492;2024-01-25T08:58:52;23.00;;;3.40;;
81310;SDS011;70779;52.506;5.492;2024-01-25T09:01:18;27.05;;;3.92;;
81310;SDS011;70779;52.506;5.492;2024-01-25T09:03:44;16.23;;;3.17;;
81310;SDS011;70779;52.506;5.492;2024-01-25T09:06:10;17.42;;;2.60;;
81310;SDS011;70779;52.506;5.492;2024-01-25T09:08:37;21.80;;;3.80;;
81310;SDS011;70779;52.506;5.492;2024-01-25T09:11:03;26.48;;;3.95;;
81310;SDS011;70779;52.506;5.492;2024-01-25T09:13:30;24.45;;;3.38;;
81310;SDS011;70779;52.506;5.492;2024-01-25T09:15:57;21.90;;;3.75;;
81310;SDS011;70779;52.506;5.492;2024-01-25T09:18:24;21.10;;;3.90;;
81310;SDS011;70779;52.506;5.492;2024-01-25T09:20:50;20.05;;;3.40;;
81310;SDS011;70779;52.506;5.492;2024-01-25T09:23:16;18.88;;;3.28;;
81310;SDS011;70779;52.506;5.492;2024-01-25T09:25:45;20.58;;;2.83;;
81310;SDS011;70779;52.506;5.492;2024-01-25T09:28:12;18.98;;;2.92;;
81310;SDS011;70779;52.506;5.492;2024-01-25T09:30:38;27.45;;;3.97;;
81310;SDS011;70779;52.506;5.492;2024-01-25T09:33:05;21.35;;;3.45;;
81310;SDS011;70779;52.506;5.492;2024-01-25T09:35:32;23.85;;;3.45;;
81310;SDS011;70779;52.506;5.492;2024-01-25T09:37:58;22.08;;;3.38;;
81310;SDS011;70779;52.506;5.492;2024-01-25T09:40:24;21.13;;;3.17;;
81310;SDS011;70779;52.506;5.492;2024-01-25T09:42:53;17.13;;;2.60;;
81310;SDS011;70779;52.506;5.492;2024-01-25T09:45:20;21.02;;;3.50;;
81310;SDS011;70779;52.506;5.492;2024-01-25T09:47:46;23.80;;;3.38;;
81310;SDS011;70779;52.506;5.492;2024-01-25T09:50:13;22.15;;;3.03;;
81310;SDS011;70779;52.506;5.492;2024-01-25T09:52:41;34.10;;;3.35;;
81310;SDS011;70779;52.506;5.492;2024-01-25T09:55:11;27.77;;;3.83;;
81310;SDS011;70779;52.506;5.492;2024-01-25T09:57:44;20.63;;;3.58;;
81310;SDS011;70779;52.506;5.492;2024-01-25T10:00:12;25.08;;;4.03;;
81310;SDS011;70779;52.506;5.492;2024-01-25T10:02:39;22.35;;;2.10;;
81310;SDS011;70779;52.506;5.492;2024-01-25T10:05:05;22.75;;;3.83;;
81310;SDS011;70779;52.506;5.492;2024-01-25T10:07:35;20.02;;;3.15;;
81310;SDS011;70779;52.506;5.492;2024-01-25T10:12:31;28.30;;;3.65;;
81310;SDS011;70779;52.506;5.492;2024-01-25T10:14:57;23.95;;;3.17;;
81310;SDS011;70779;52.506;5.492;2024-01-25T10:17:24;24.40;;;3.78;;
81310;SDS011;70779;52.506;5.492;2024-01-25T10:19:50;27.67;;;4.35;;
81310;SDS011;70779;52.506;5.492;2024-01-25T10:22:16;23.75;;;3.78;;
81310;SDS011;70779;52.506;5.492;2024-01-25T10:24:43;22.88;;;3.60;;
81310;SDS011;70779;52.506;5.492;2024-01-25T10:27:10;24.42;;;3.22;;
81310;SDS011;70779;52.506;5.492;2024-01-25T10:29:36;17.08;;;3.22;;
81310;SDS011;70779;52.506;5.492;2024-01-25T10:32:03;26.90;;;3.70;;
81310;SDS011;70779;52.506;5.492;2024-01-25T10:34:30;21.83;;;3.55;;
81310;SDS011;70779;52.506;5.492;2024-01-25T10:36:57;16.38;;;4.00;;
81310;SDS011;70779;52.506;5.492;2024-01-25T10:39:24;22.15;;;4.07;;
81310;SDS011;70779;52.506;5.492;2024-01-25T10:41:50;28.67;;;4.65;;
81310;SDS011;70779;52.506;5.492;2024-01-25T10:44:17;20.13;;;3.83;;
81310;SDS011;70779;52.506;5.492;2024-01-25T10:46:47;25.13;;;3.60;;
81310;SDS011;70779;52.506;5.492;2024-01-25T10:49:14;23.23;;;3.85;;
81310;SDS011;70779;52.506;5.492;2024-01-25T10:51:41;17.83;;;4.00;;
81310;SDS011;70779;52.506;5.492;2024-01-25T10:54:08;20.98;;;3.20;;
81310;SDS011;70779;52.506;5.492;2024-01-25T10:56:34;20.15;;;4.07;;
81310;SDS011;70779;52.506;5.492;2024-01-25T10:59:01;19.77;;;4.05;;
81310;SDS011;70779;52.506;5.492;2024-01-25T11:01:27;29.08;;;4.45;;
81310;SDS011;70779;52.506;5.492;2024-01-25T11:03:53;23.58;;;3.45;;
81310;SDS011;70779;52.506;5.492;2024-01-25T11:06:20;19.80;;;3.88;;
81310;SDS011;70779;52.506;5.492;2024-01-25T11:08:47;20.40;;;4.03;;
81310;SDS011;70779;52.506;5.492;2024-01-25T11:11:14;21.73;;;3.47;;
81310;SDS011;70779;52.506;5.492;2024-01-25T11:13:41;22.05;;;4.30;;
81310;SDS011;70779;52.506;5.492;2024-01-25T11:16:14;20.75;;;3.83;;
81310;SDS011;70779;52.506;5.492;2024-01-25T11:18:51;21.38;;;5.00;;
81310;SDS011;70779;52.506;5.492;2024-01-25T11:21:28;18.23;;;4.45;;
81310;SDS011;70779;52.506;5.492;2024-01-25T11:23:58;22.95;;;4.13;;
81310;SDS011;70779;52.506;5.492;2024-01-25T11:26:28;25.92;;;4.28;;
81310;SDS011;70779;52.506;5.492;2024-01-25T11:28:56;20.52;;;3.72;;
81310;SDS011;70779;52.506;5.492;2024-01-25T11:31:26;23.25;;;4.47;;
81310;SDS011;70779;52.506;5.492;2024-01-25T11:33:59;35.97;;;6.55;;
81310;SDS011;70779;52.506;5.492;2024-01-25T11:36:26;20.05;;;4.30;;
81310;SDS011;70779;52.506;5.492;2024-01-25T11:38:53;21.77;;;4.47;;
81310;SDS011;70779;52.506;5.492;2024-01-25T11:41:20;26.92;;;4.78;;
81310;SDS011;70779;52.506;5.492;2024-01-25T11:43:49;14.27;;;3.13;;
81310;SDS011;70779;52.506;5.492;2024-01-25T11:46:15;28.10;;;5.15;;
81310;SDS011;70779;52.506;5.492;2024-01-25T11:48:42;30.27;;;4.75;;
81310;SDS011;70779;52.506;5.492;2024-01-25T11:51:09;19.45;;;4.47;;
81310;SDS011;70779;52.506;5.492;2024-01-25T11:53:36;26.88;;;4.20;;
81310;SDS011;70779;52.506;5.492;2024-01-25T11:56:03;17.27;;;4.28;;
81310;SDS011;70779;52.506;5.492;2024-01-25T11:58:31;24.02;;;3.67;;
81310;SDS011;70779;52.506;5.492;2024-01-25T12:00:57;25.50;;;3.58;;
81310;SDS011;70779;52.506;5.492;2024-01-25T12:03:25;21.70;;;3.38;;
81310;SDS011;70779;52.506;5.492;2024-01-25T12:05:51;22.25;;;4.13;;
81310;SDS011;70779;52.506;5.492;2024-01-25T12:08:18;18.50;;;3.45;;
81310;SDS011;70779;52.506;5.492;2024-01-25T12:10:44;22.65;;;3.70;;
81310;SDS011;70779;52.506;5.492;2024-01-25T12:13:10;19.00;;;4.22;;
81310;SDS011;70779;52.506;5.492;2024-01-25T12:15:36;23.30;;;4.43;;
81310;SDS011;70779;52.506;5.492;2024-01-25T12:18:02;23.08;;;3.63;;
81310;SDS011;70779;52.506;5.492;2024-01-25T12:20:31;18.60;;;4.05;;
81310;SDS011;70779;52.506;5.492;2024-01-25T12:22:58;16.67;;;4.32;;
81310;SDS011;70779;52.506;5.492;2024-01-25T12:25:24;25.02;;;5.00;;
81310;SDS011;70779;52.506;5.492;2024-01-25T12:27:50;25.98;;;5.43;;
81310;SDS011;70779;52.506;5.492;2024-01-25T12:30:16;23.85;;;5.30;;
81310;SDS011;70779;52.506;5.492;2024-01-25T12:32:42;18.73;;;4.97;;
81310;SDS011;70779;52.506;5.492;2024-01-25T12:35:08;17.92;;;4.68;;
81310;SDS011;70779;52.506;5.492;2024-01-25T12:37:35;23.05;;;5.80;;
81310;SDS011;70779;52.506;5.492;2024-01-25T12:40:01;22.95;;;5.47;;
81310;SDS011;70779;52.506;5.492;2024-01-25T12:42:28;23.98;;;5.53;;
81310;SDS011;70779;52.506;5.492;2024-01-25T12:44:54;18.67;;;4.57;;
81310;SDS011;70779;52.506;5.492;2024-01-25T12:47:20;20.08;;;4.90;;
81310;SDS011;70779;52.506;5.492;2024-01-25T12:49:46;22.52;;;4.38;;
81310;SDS011;70779;52.506;5.492;2024-01-25T12:52:13;25.20;;;5.05;;
81310;SDS011;70779;52.506;5.492;2024-01-25T12:54:40;23.00;;;4.72;;
81310;SDS011;70779;52.506;5.492;2024-01-25T12:57:06;26.48;;;4.88;;
81310;SDS011;70779;52.506;5.492;2024-01-25T12:59:33;32.15;;;5.45;;
81310;SDS011;70779;52.506;5.492;2024-01-25T13:02:00;19.92;;;4.47;;
81310;SDS011;70779;52.506;5.492;2024-01-25T13:04:26;23.42;;;4.28;;
81310;SDS011;70779;52.506;5.492;2024-01-25T13:06:53;26.52;;;3.92;;
81310;SDS011;70779;52.506;5.492;2024-01-25T13:09:21;24.70;;;3.65;;
81310;SDS011;70779;52.506;5.492;2024-01-25T13:11:48;24.00;;;3.45;;
81310;SDS011;70779;52.506;5.492;2024-01-25T13:14:14;21.55;;;3.55;;
81310;SDS011;70779;52.506;5.492;2024-01-25T13:16:41;18.90;;;3.60;;
81310;SDS011;70779;52.506;5.492;2024-01-25T13:19:07;19.02;;;2.72;;
81310;SDS011;70779;52.506;5.492;2024-01-25T13:21:34;19.95;;;3.05;;
81310;SDS011;70779;52.506;5.492;2024-01-25T13:24:00;26.52;;;3.53;;
81310;SDS011;70779;52.506;5.492;2024-01-25T13:26:26;15.15;;;3.55;;
81310;SDS011;70779;52.506;5.492;2024-01-25T13:28:52;15.80;;;2.65;;
81310;SDS011;70779;52.506;5.492;2024-01-25T13:31:19;21.65;;;3.50;;
81310;SDS011;70779;52.506;5.492;2024-01-25T13:33:45;21.08;;;3.67;;
81310;SDS011;70779;52.506;5.492;2024-01-25T13:36:12;16.77;;;2.13;;
81310;SDS011;70779;52.506;5.492;2024-01-25T13:38:40;18.98;;;3.03;;
81310;SDS011;70779;52.506;5.492;2024-01-25T13:41:06;18.77;;;3.08;;
81310;SDS011;70779;52.506;5.492;2024-01-25T13:43:32;21.67;;;3.97;;
81310;SDS011;70779;52.506;5.492;2024-01-25T13:45:58;16.38;;;2.58;;
81310;SDS011;70779;52.506;5.492;2024-01-25T13:48:24;23.65;;;3.60;;
81310;SDS011;70779;52.506;5.492;2024-01-25T13:50:51;25.30;;;4.45;;
81310;SDS011;70779;52.506;5.492;2024-01-25T13:53:17;15.85;;;3.47;;
81310;SDS011;70779;52.506;5.492;2024-01-25T13:55:43;23.88;;;3.22;;
81310;SDS011;70779;52.506;5.492;2024-01-25T13:58:10;20.00;;;3.70;;
81310;SDS011;70779;52.506;5.492;2024-01-25T14:00:36;21.05;;;3.63;;
81310;SDS011;70779;52.506;5.492;2024-01-25T14:03:02;19.27;;;3.42;;
81310;SDS011;70779;52.506;5.492;2024-01-25T14:05:28;20.77;;;4.07;;
81310;SDS011;70779;52.506;5.492;2024-01-25T14:07:54;15.90;;;2.83;;
81310;SDS011;70779;52.506;5.492;2024-01-25T14:10:20;34.10;;;4.25;;
81310;SDS011;70779;52.506;5.492;2024-01-25T14:12:46;20.85;;;3.83;;
81310;SDS011;70779;52.506;5.492;2024-01-25T14:15:13;18.73;;;4.35;;
81310;SDS011;70779;52.506;5.492;2024-01-25T14:17:39;21.65;;;4.70;;
81310;SDS011;70779;52.506;5.492;2024-01-25T14:20:05;19.98;;;2.88;;
81310;SDS011;70779;52.506;5.492;2024-01-25T14:22:32;24.00;;;3.53;;
81310;SDS011;70779;52.506;5.492;2024-01-25T14:24:58;26.85;;;3.25;;
81310;SDS011;70779;52.506;5.492;2024-01-25T14:27:24;22.45;;;3.40;;
81310;SDS011;70779;52.506;5.492;2024-01-25T14:29:50;24.60;;;4.25;;
81310;SDS011;70779;52.506;5.492;2024-01-25T14:32:17;14.88;;;2.75;;